Time;durP1;ratioP1;P1;durP2;ratioP2;P2;SDS_P1;SDS_P2;PMS_P1;PMS_P2;Temp;Humidity;BMP_temperature;BMP_pressure;BME280_temperature;BME280_humidity;BME280_pressure;Samples;Min_cycle;Max_cycle;Signal;HPM_P1;HPM_P2
2023/06/29 00:00:00;;;;;;;1.20;1.20;;;;;;;;;;5084387;28;20218;-78
2023/06/29 00:02:29;;;;;;;1.38;1.27;;;;;;;;;;5079945;28;20210;-76
2023/06/29 00:04:56;;;;;;;1.30;1.30;;;;;;;;;;5078536;28;20266;-76
2023/06/29 00:07:24;;;;;;;1.48;1.30;;;;;;;;;;5068496;28;20226;-76
2023/06/29 00:09:53;;;;;;;1.45;1.30;;;;;;;;;;5073812;28;20780;-77
2023/06/29 00:12:20;;;;;;;1.38;1.38;;;;;;;;;;5067807;28;20207;-77
2023/06/29 00:14:48;;;;;;;1.05;1.05;;;;;;;;;;5067980;28;20199;-78
2023/06/29 00:17:16;;;;;;;1.20;1.20;;;;;;;;;;5068483;28;20672;-77
2023/06/29 00:19:47;;;;;;;1.13;1.13;;;;;;;;;;5076400;28;20388;-78
2023/06/29 00:22:14;;;;;;;3.85;1.65;;;;;;;;;;5077264;28;20257;-78
2023/06/29 00:24:43;;;;;;;3.03;1.20;;;;;;;;;;5068457;28;20276;-78
2023/06/29 00:27:10;;;;;;;1.77;1.40;;;;;;;;;;5068139;28;20884;-77
2023/06/29 00:29:37;;;;;;;3.17;1.67;;;;;;;;;;5086642;28;20202;-77
2023/06/29 00:32:05;;;;;;;3.20;1.33;;;;;;;;;;5086163;28;20210;-77
2023/06/29 00:34:32;;;;;;;1.52;1.40;;;;;;;;;;5087383;28;20194;-77
2023/06/29 00:36:59;;;;;;;1.80;1.70;;;;;;;;;;5083586;28;20320;-77
2023/06/29 00:39:26;;;;;;;1.73;1.33;;;;;;;;;;5086521;28;20205;-77
2023/06/29 00:41:54;;;;;;;0.95;0.95;;;;;;;;;;5078952;28;20279;-77
2023/06/29 00:44:21;;;;;;;1.50;1.40;;;;;;;;;;5071979;28;20293;-77
2023/06/29 00:46:48;;;;;;;1.05;0.90;;;;;;;;;;5087760;28;20291;-77
2023/06/29 00:49:16;;;;;;;1.30;1.30;;;;;;;;;;5068772;28;20195;-77
2023/06/29 00:51:44;;;;;;;2.40;1.17;;;;;;;;;;5075375;28;20214;-77
2023/06/29 00:54:11;;;;;;;1.58;1.48;;;;;;;;;;5077332;28;20636;-77
2023/06/29 00:56:38;;;;;;;1.15;1.13;;;;;;;;;;5084015;28;20198;-78
2023/06/29 00:59:05;;;;;;;1.30;1.30;;;;;;;;;;5076269;28;20215;-77
2023/06/29 01:01:32;;;;;;;1.27;1.27;;;;;;;;;;5077478;28;20220;-78
2023/06/29 01:03:59;;;;;;;1.70;1.42;;;;;;;;;;5074102;28;20317;-78
2023/06/29 01:06:30;;;;;;;1.17;1.17;;;;;;;;;;5078148;28;20661;-77
2023/06/29 01:09:00;;;;;;;1.30;1.30;;;;;;;;;;5077518;28;20206;-77
2023/06/29 01:11:27;;;;;;;1.90;1.48;;;;;;;;;;5082250;28;20246;-77
2023/06/29 01:13:55;;;;;;;1.55;1.45;;;;;;;;;;5071429;28;20211;-77
2023/06/29 01:16:23;;;;;;;1.20;1.20;;;;;;;;;;5074113;28;20207;-77
2023/06/29 01:18:52;;;;;;;1.48;1.15;;;;;;;;;;5081101;28;20294;-77
2023/06/29 01:21:20;;;;;;;1.13;1.13;;;;;;;;;;5072950;28;20680;-77
2023/06/29 01:23:48;;;;;;;2.03;1.42;;;;;;;;;;5074099;28;20199;-78
2023/06/29 01:26:16;;;;;;;1.33;1.33;;;;;;;;;;5090307;28;20214;-78
2023/06/29 01:28:43;;;;;;;1.10;0.95;;;;;;;;;;5072224;28;20233;-78
2023/06/29 01:31:11;;;;;;;1.13;1.13;;;;;;;;;;5071181;28;20265;-79
2023/06/29 01:33:38;;;;;;;1.60;1.50;;;;;;;;;;5072136;28;20682;-78
2023/06/29 01:36:08;;;;;;;1.15;1.15;;;;;;;;;;5070952;28;20207;-78
2023/06/29 01:38:38;;;;;;;1.88;1.77;;;;;;;;;;5088641;28;20202;-78
2023/06/29 01:41:07;;;;;;;1.48;1.42;;;;;;;;;;5077755;28;20635;-78
2023/06/29 01:43:36;;;;;;;1.55;1.45;;;;;;;;;;5072990;28;20215;-78
2023/06/29 01:46:04;;;;;;;1.40;1.38;;;;;;;;;;5070623;28;20795;-79
2023/06/29 01:48:31;;;;;;;5.97;1.52;;;;;;;;;;5070672;28;20222;-78
2023/06/29 01:50:58;;;;;;;1.52;1.42;;;;;;;;;;5084890;28;20215;-78
2023/06/29 01:53:25;;;;;;;1.33;1.33;;;;;;;;;;5089886;28;20198;-78
2023/06/29 01:55:52;;;;;;;2.53;1.42;;;;;;;;;;5090397;28;20210;-79
2023/06/29 01:58:19;;;;;;;1.77;1.50;;;;;;;;;;5074776;28;20203;-79
2023/06/29 02:00:48;;;;;;;3.17;1.60;;;;;;;;;;5087066;28;20905;-79
2023/06/29 02:03:15;;;;;;;1.35;1.25;;;;;;;;;;5087289;28;20672;-78
2023/06/29 02:05:42;;;;;;;1.25;1.20;;;;;;;;;;5090388;28;20360;-77
2023/06/29 02:08:09;;;;;;;2.20;1.50;;;;;;;;;;5079682;28;20642;-77
2023/06/29 02:10:36;;;;;;;1.60;1.50;;;;;;;;;;5069868;28;20286;-78
2023/06/29 02:13:03;;;;;;;1.33;1.33;;;;;;;;;;5080222;28;20251;-77
2023/06/29 02:15:30;;;;;;;5.82;1.63;;;;;;;;;;5073927;28;20277;-77
2023/06/29 02:17:58;;;;;;;1.27;1.27;;;;;;;;;;5075556;28;20203;-77
2023/06/29 02:20:25;;;;;;;1.50;1.50;;;;;;;;;;5070240;28;20711;-77
2023/06/29 02:22:52;;;;;;;1.75;1.38;;;;;;;;;;5070105;28;20195;-77
2023/06/29 02:25:19;;;;;;;1.30;1.30;;;;;;;;;;5070585;28;20613;-77
2023/06/29 02:27:46;;;;;;;1.38;1.35;;;;;;;;;;5073454;28;20230;-77
2023/06/29 02:30:14;;;;;;;1.48;1.40;;;;;;;;;;5085005;28;20281;-77
2023/06/29 02:32:41;;;;;;;2.17;1.48;;;;;;;;;;5081058;28;20202;-77
2023/06/29 02:35:10;;;;;;;1.70;1.60;;;;;;;;;;5081458;28;20199;-77
2023/06/29 02:37:37;;;;;;;1.33;1.33;;;;;;;;;;5069483;28;20301;-77
2023/06/29 02:40:04;;;;;;;1.58;1.48;;;;;;;;;;5069526;28;20195;-77
2023/06/29 02:42:32;;;;;;;1.80;1.63;;;;;;;;;;5074934;28;20205;-77
2023/06/29 02:44:59;;;;;;;1.30;1.30;;;;;;;;;;5076209;28;20691;-77
2023/06/29 02:47:27;;;;;;;1.70;1.60;;;;;;;;;;5088908;28;20249;-77
2023/06/29 02:49:54;;;;;;;1.38;1.38;;;;;;;;;;5082879;28;20260;-77
2023/06/29 02:52:23;;;;;;;1.58;1.42;;;;;;;;;;5087351;28;20206;-77
2023/06/29 02:54:50;;;;;;;1.20;1.20;;;;;;;;;;5071818;28;20260;-76
2023/06/29 02:57:17;;;;;;;1.17;1.13;;;;;;;;;;5085273;28;20206;-76
2023/06/29 02:59:44;;;;;;;2.10;1.58;;;;;;;;;;5068641;28;20215;-76
2023/06/29 03:02:11;;;;;;;2.55;1.55;;;;;;;;;;5087138;28;20198;-76
2023/06/29 03:04:38;;;;;;;1.58;1.55;;;;;;;;;;5073255;28;20623;-76
2023/06/29 03:07:06;;;;;;;1.85;1.40;;;;;;;;;;5084566;28;20824;-76
2023/06/29 03:09:34;;;;;;;1.40;1.40;;;;;;;;;;5088200;28;20222;-77
2023/06/29 03:12:01;;;;;;;1.90;1.80;;;;;;;;;;5081997;28;20259;-76
2023/06/29 03:14:28;;;;;;;1.80;1.70;;;;;;;;;;5084419;28;20210;-76
2023/06/29 03:16:55;;;;;;;2.97;1.27;;;;;;;;;;5077750;28;20256;-77
2023/06/29 03:19:22;;;;;;;1.40;1.40;;;;;;;;;;5087982;28;20252;-76
2023/06/29 03:21:49;;;;;;;2.58;1.60;;;;;;;;;;5087621;28;20222;-76
2023/06/29 03:24:16;;;;;;;1.80;1.70;;;;;;;;;;5076441;28;20244;-76
2023/06/29 03:26:44;;;;;;;1.35;1.35;;;;;;;;;;5078150;28;20304;-76
2023/06/29 03:29:11;;;;;;;2.22;2.03;;;;;;;;;;5069584;28;20700;-76
2023/06/29 03:31:38;;;;;;;1.95;1.70;;;;;;;;;;5083070;28;20210;-76
2023/06/29 03:34:05;;;;;;;1.25;1.23;;;;;;;;;;5087332;28;20202;-76
2023/06/29 03:36:32;;;;;;;1.95;1.85;;;;;;;;;;5083833;28;20307;-76
2023/06/29 03:38:59;;;;;;;1.77;1.77;;;;;;;;;;5084912;28;20202;-76
2023/06/29 03:41:26;;;;;;;2.03;1.92;;;;;;;;;;5069666;28;20222;-78
2023/06/29 03:43:55;;;;;;;1.60;1.52;;;;;;;;;;5068254;28;20237;-76
2023/06/29 03:46:22;;;;;;;1.48;1.48;;;;;;;;;;5072685;28;20207;-76
2023/06/29 03:48:49;;;;;;;1.50;1.50;;;;;;;;;;5079878;28;20704;-76
2023/06/29 03:51:16;;;;;;;1.60;1.50;;;;;;;;;;5079525;28;20288;-76
2023/06/29 03:53:44;;;;;;;1.52;1.52;;;;;;;;;;5080668;28;20207;-76
2023/06/29 03:56:11;;;;;;;1.35;1.35;;;;;;;;;;5085743;28;20202;-78
2023/06/29 03:58:38;;;;;;;1.92;1.70;;;;;;;;;;5084526;28;20728;-76
2023/06/29 04:01:06;;;;;;;1.90;1.80;;;;;;;;;;5072466;28;20260;-76
2023/06/29 04:03:33;;;;;;;1.63;1.63;;;;;;;;;;5074683;28;20210;-76
2023/06/29 04:06:00;;;;;;;2.78;1.92;;;;;;;;;;5087519;28;20206;-76
2023/06/29 04:08:27;;;;;;;1.88;1.80;;;;;;;;;;5088076;28;20711;-76
2023/06/29 04:10:55;;;;;;;1.38;1.27;;;;;;;;;;5084811;28;20198;-76
2023/06/29 04:13:22;;;;;;;1.83;1.73;;;;;;;;;;5068861;28;20207;-76
2023/06/29 04:15:49;;;;;;;2.20;2.10;;;;;;;;;;5079933;28;20211;-76
2023/06/29 04:18:17;;;;;;;1.80;1.70;;;;;;;;;;5069976;28;20231;-75
2023/06/29 04:20:44;;;;;;;1.92;1.80;;;;;;;;;;5079136;28;20203;-76
2023/06/29 04:23:14;;;;;;;1.75;1.70;;;;;;;;;;5085748;28;20202;-76
2023/06/29 04:25:42;;;;;;;4.90;1.38;;;;;;;;;;5087325;28;20214;-76
2023/06/29 04:28:11;;;;;;;2.47;1.63;;;;;;;;;;5073141;28;20313;-76
2023/06/29 04:30:40;;;;;;;1.95;1.90;;;;;;;;;;5067905;28;20210;-75
2023/06/29 04:33:10;;;;;;;1.83;1.73;;;;;;;;;;5078717;28;20202;-72
2023/06/29 04:35:39;;;;;;;1.63;1.60;;;;;;;;;;5087803;28;20689;-73
2023/06/29 04:38:07;;;;;;;1.63;1.45;;;;;;;;;;5077275;28;20692;-72
2023/06/29 04:40:34;;;;;;;2.42;1.70;;;;;;;;;;5078644;28;20294;-66
2023/06/29 04:43:02;;;;;;;5.07;1.75;;;;;;;;;;5079995;28;20264;-66
2023/06/29 04:45:31;;;;;;;1.65;1.65;;;;;;;;;;5081772;28;20295;-66
2023/06/29 04:47:59;;;;;;;1.85;1.70;;;;;;;;;;5084572;28;20206;-67
2023/06/29 04:50:26;;;;;;;1.58;1.58;;;;;;;;;;5079001;28;20256;-67
2023/06/29 04:52:56;;;;;;;1.80;1.70;;;;;;;;;;5106613;28;20209;-68
2023/06/29 04:55:23;;;;;;;2.50;1.85;;;;;;;;;;5086345;28;20677;-67
2023/06/29 04:57:50;;;;;;;1.58;1.50;;;;;;;;;;5087829;28;20211;-67
2023/06/29 05:00:19;;;;;;;2.13;1.80;;;;;;;;;;5089795;28;20852;-67
2023/06/29 05:02:46;;;;;;;1.98;1.90;;;;;;;;;;5080406;28;20206;-67
2023/06/29 05:05:13;;;;;;;1.67;1.60;;;;;;;;;;5091223;28;20242;-67
2023/06/29 05:07:41;;;;;;;2.50;1.23;;;;;;;;;;5090689;28;20218;-67
2023/06/29 05:10:10;;;;;;;1.70;1.70;;;;;;;;;;5071177;28;20257;-70
2023/06/29 05:12:37;;;;;;;2.78;1.40;;;;;;;;;;5071605;28;20217;-68
2023/06/29 05:15:05;;;;;;;2.10;2.00;;;;;;;;;;5070845;28;20210;-68
2023/06/29 05:17:32;;;;;;;2.42;2.28;;;;;;;;;;5082884;28;20574;-69
2023/06/29 05:19:59;;;;;;;1.95;1.65;;;;;;;;;;5089358;28;20210;-67
2023/06/29 05:22:26;;;;;;;1.50;1.50;;;;;;;;;;5091256;28;20243;-67
2023/06/29 05:24:53;;;;;;;1.88;1.70;;;;;;;;;;5077618;28;20210;-66
2023/06/29 05:27:21;;;;;;;2.20;2.10;;;;;;;;;;5090964;28;20250;-68
2023/06/29 05:29:48;;;;;;;2.08;1.80;;;;;;;;;;5089410;28;20226;-67
2023/06/29 05:32:15;;;;;;;2.35;2.20;;;;;;;;;;5086739;28;20210;-67
2023/06/29 05:34:42;;;;;;;2.20;2.10;;;;;;;;;;5084368;28;20217;-69
2023/06/29 05:37:09;;;;;;;2.05;1.95;;;;;;;;;;5087832;28;20196;-69
2023/06/29 05:39:36;;;;;;;3.15;2.00;;;;;;;;;;5071016;28;20290;-69
2023/06/29 05:42:03;;;;;;;2.58;2.38;;;;;;;;;;5084364;28;20668;-68
2023/06/29 05:44:32;;;;;;;2.97;2.15;;;;;;;;;;5088370;28;20618;-68
2023/06/29 05:46:59;;;;;;;1.58;1.58;;;;;;;;;;5069365;28;20563;-68
2023/06/29 05:49:26;;;;;;;2.20;2.10;;;;;;;;;;5078716;28;20225;-69
2023/06/29 05:51:53;;;;;;;2.08;1.95;;;;;;;;;;5081517;28;20207;-68
2023/06/29 05:54:20;;;;;;;2.28;1.85;;;;;;;;;;5071317;28;20268;-68
2023/06/29 05:56:47;;;;;;;1.67;1.58;;;;;;;;;;5085001;28;20215;-69
2023/06/29 05:59:14;;;;;;;2.00;1.90;;;;;;;;;;5069893;28;20218;-68
2023/06/29 06:01:42;;;;;;;2.30;2.05;;;;;;;;;;5072065;28;20257;-69
2023/06/29 06:04:09;;;;;;;2.10;1.90;;;;;;;;;;5078013;28;20275;-67
2023/06/29 06:06:39;;;;;;;1.58;1.58;;;;;;;;;;5110874;28;20210;-67
2023/06/29 06:09:06;;;;;;;1.92;1.75;;;;;;;;;;5097875;28;20225;-67
2023/06/29 06:11:33;;;;;;;3.17;1.90;;;;;;;;;;5086022;28;20783;-67
2023/06/29 06:14:00;;;;;;;1.85;1.75;;;;;;;;;;5066735;28;20661;-67
2023/06/29 06:16:27;;;;;;;1.60;1.50;;;;;;;;;;5078984;28;20207;-67
2023/06/29 06:18:55;;;;;;;1.92;1.88;;;;;;;;;;5106454;28;20309;-67
2023/06/29 06:21:23;;;;;;;5.85;1.88;;;;;;;;;;5090459;28;20230;-67
2023/06/29 06:23:50;;;;;;;2.00;1.90;;;;;;;;;;5089318;28;20202;-67
2023/06/29 06:26:17;;;;;;;1.90;1.80;;;;;;;;;;5078816;28;20199;-67
2023/06/29 06:28:44;;;;;;;1.80;1.70;;;;;;;;;;5085756;28;20616;-67
2023/06/29 06:31:12;;;;;;;1.70;1.60;;;;;;;;;;5083002;28;20260;-68
2023/06/29 06:33:40;;;;;;;2.00;1.90;;;;;;;;;;5079905;28;20297;-65
2023/06/29 06:36:08;;;;;;;2.15;1.52;;;;;;;;;;5085614;28;20273;-64
2023/06/29 06:38:35;;;;;;;1.73;1.63;;;;;;;;;;5069489;28;20210;-66
2023/06/29 06:41:02;;;;;;;1.88;1.77;;;;;;;;;;5082322;28;20214;-67
2023/06/29 06:43:29;;;;;;;3.83;2.00;;;;;;;;;;5077510;28;20206;-66
2023/06/29 06:45:56;;;;;;;2.00;1.90;;;;;;;;;;5087839;28;20202;-66
2023/06/29 06:48:23;;;;;;;4.43;1.60;;;;;;;;;;5087317;28;20217;-65
2023/06/29 06:50:50;;;;;;;1.70;1.67;;;;;;;;;;5075937;28;20841;-64
2023/06/29 06:53:19;;;;;;;1.65;1.65;;;;;;;;;;5068457;28;20219;-61
2023/06/29 06:55:46;;;;;;;1.48;1.38;;;;;;;;;;5068646;28;20225;-64
2023/06/29 06:58:13;;;;;;;1.65;1.48;;;;;;;;;;5068505;28;20219;-63
2023/06/29 07:00:40;;;;;;;1.30;1.27;;;;;;;;;;5077620;28;20202;-64
2023/06/29 07:03:07;;;;;;;1.02;1.02;;;;;;;;;;5087514;28;20206;-63
2023/06/29 07:05:34;;;;;;;1.40;1.38;;;;;;;;;;5087858;28;20238;-64
2023/06/29 07:08:01;;;;;;;1.27;1.27;;;;;;;;;;5088747;28;20214;-63
2023/06/29 07:10:32;;;;;;;1.20;1.20;;;;;;;;;;5083210;28;20227;-64
2023/06/29 07:12:59;;;;;;;1.30;1.20;;;;;;;;;;5070579;28;20203;-64
2023/06/29 07:15:26;;;;;;;2.60;1.20;;;;;;;;;;5078763;28;20760;-64
2023/06/29 07:17:53;;;;;;;1.10;1.10;;;;;;;;;;5069549;28;20215;-64
2023/06/29 07:20:21;;;;;;;1.50;1.42;;;;;;;;;;5086918;28;20206;-64
2023/06/29 07:22:48;;;;;;;1.33;1.33;;;;;;;;;;5067881;28;20241;-64
2023/06/29 07:25:15;;;;;;;1.63;1.63;;;;;;;;;;5068175;28;20206;-64
2023/06/29 07:27:43;;;;;;;1.60;1.60;;;;;;;;;;5068013;28;20674;-65
2023/06/29 07:30:10;;;;;;;1.40;1.40;;;;;;;;;;5068002;28;20292;-65
2023/06/29 07:32:38;;;;;;;1.65;1.40;;;;;;;;;;5084445;28;20206;-64
2023/06/29 07:35:06;;;;;;;1.40;1.40;;;;;;;;;;5087583;28;20206;-64
2023/06/29 07:37:34;;;;;;;1.63;1.52;;;;;;;;;;5087678;28;20221;-64
2023/06/29 07:40:04;;;;;;;1.50;1.50;;;;;;;;;;5086630;28;20199;-64
2023/06/29 07:42:31;;;;;;;1.70;1.60;;;;;;;;;;5086106;28;20203;-63
2023/06/29 07:44:59;;;;;;;1.60;1.50;;;;;;;;;;5087344;28;20215;-64
2023/06/29 07:47:26;;;;;;;1.23;1.20;;;;;;;;;;5088038;28;20263;-64
2023/06/29 07:49:53;;;;;;;1.45;1.35;;;;;;;;;;5087989;28;20237;-64
2023/06/29 07:52:22;;;;;;;1.10;1.10;;;;;;;;;;5071553;28;20279;-64
2023/06/29 07:54:49;;;;;;;1.30;1.20;;;;;;;;;;5067753;28;20203;-64
2023/06/29 07:57:16;;;;;;;1.10;1.00;;;;;;;;;;5067504;28;20301;-63
2023/06/29 07:59:43;;;;;;;1.10;1.10;;;;;;;;;;5087082;28;20260;-64
2023/06/29 08:02:12;;;;;;;1.10;1.10;;;;;;;;;;5070093;28;20203;-64
2023/06/29 08:04:39;;;;;;;0.82;0.70;;;;;;;;;;5085076;28;20276;-69
2023/06/29 08:07:07;;;;;;;1.08;1.08;;;;;;;;;;5072713;28;20195;-68
2023/06/29 08:09:34;;;;;;;0.73;0.73;;;;;;;;;;5076123;28;20226;-68
2023/06/29 08:12:01;;;;;;;0.82;0.82;;;;;;;;;;5078088;28;20205;-68
2023/06/29 08:14:28;;;;;;;1.83;1.20;;;;;;;;;;5068869;28;20578;-68
2023/06/29 08:16:55;;;;;;;0.90;0.90;;;;;;;;;;5070680;28;20214;-68
2023/06/29 08:19:24;;;;;;;1.23;1.23;;;;;;;;;;5086490;28;20229;-68
2023/06/29 08:21:55;;;;;;;1.00;1.00;;;;;;;;;;5076021;28;20770;-67
2023/06/29 08:24:22;;;;;;;0.85;0.85;;;;;;;;;;5072661;28;20607;-68
2023/06/29 08:26:49;;;;;;;1.23;1.10;;;;;;;;;;5080896;28;20214;-69
2023/06/29 08:29:16;;;;;;;1.08;0.90;;;;;;;;;;5080600;28;20215;-71
2023/06/29 08:31:43;;;;;;;1.00;1.00;;;;;;;;;;5090566;28;20210;-71
2023/06/29 08:34:10;;;;;;;1.10;1.10;;;;;;;;;;5087769;28;20240;-71
2023/06/29 08:36:38;;;;;;;3.83;1.05;;;;;;;;;;5086100;28;20223;-71
2023/06/29 08:39:05;;;;;;;1.40;0.95;;;;;;;;;;5087989;28;20214;-71
2023/06/29 08:41:32;;;;;;;0.70;0.70;;;;;;;;;;5085534;28;20206;-71
2023/06/29 08:44:01;;;;;;;0.80;0.80;;;;;;;;;;5075534;28;20252;-70
2023/06/29 08:46:29;;;;;;;0.80;0.80;;;;;;;;;;5069980;28;20261;-71
2023/06/29 08:48:56;;;;;;;1.02;1.02;;;;;;;;;;5087874;28;20206;-71
2023/06/29 08:51:24;;;;;;;0.90;0.90;;;;;;;;;;5087233;28;20232;-71
2023/06/29 08:53:53;;;;;;;2.15;1.00;;;;;;;;;;5070804;28;20898;-71
2023/06/29 08:56:23;;;;;;;0.90;0.90;;;;;;;;;;5067610;28;20650;-72
2023/06/29 08:58:50;;;;;;;1.08;1.08;;;;;;;;;;5065742;28;20669;-72
2023/06/29 09:01:18;;;;;;;0.80;0.80;;;;;;;;;;5063925;28;20665;-72
2023/06/29 09:03:45;;;;;;;0.70;0.70;;;;;;;;;;5079210;28;21011;-71
2023/06/29 09:06:14;;;;;;;0.80;0.80;;;;;;;;;;5080708;28;20207;-71
2023/06/29 09:08:41;;;;;;;0.70;0.70;;;;;;;;;;5086385;28;20308;-70
2023/06/29 09:11:09;;;;;;;0.80;0.80;;;;;;;;;;5082486;28;20245;-71
2023/06/29 09:13:36;;;;;;;0.90;0.90;;;;;;;;;;5082812;28;20211;-70
2023/06/29 09:16:04;;;;;;;0.95;0.93;;;;;;;;;;5080586;28;20206;-70
2023/06/29 09:18:32;;;;;;;0.88;0.88;;;;;;;;;;5070034;28;20227;-70
2023/06/29 09:20:59;;;;;;;0.80;0.80;;;;;;;;;;5086256;28;20234;-70
2023/06/29 09:23:28;;;;;;;1.67;0.70;;;;;;;;;;5085974;28;20206;-70
2023/06/29 09:25:56;;;;;;;0.70;0.70;;;;;;;;;;5079612;28;20233;-70
2023/06/29 09:28:25;;;;;;;0.80;0.80;;;;;;;;;;5085256;28;20743;-70
2023/06/29 09:30:52;;;;;;;0.73;0.73;;;;;;;;;;5075867;28;20245;-71
2023/06/29 09:33:21;;;;;;;0.70;0.70;;;;;;;;;;5082546;28;20677;-70
2023/06/29 09:35:48;;;;;;;0.80;0.80;;;;;;;;;;5080863;28;20210;-70
2023/06/29 09:38:16;;;;;;;0.77;0.68;;;;;;;;;;5076720;28;20205;-71
2023/06/29 09:40:49;;;;;;;0.80;0.80;;;;;;;;;;5087681;28;20596;-70
2023/06/29 09:43:17;;;;;;;1.00;1.00;;;;;;;;;;5089651;28;20202;-71
2023/06/29 09:45:46;;;;;;;0.90;0.90;;;;;;;;;;5089458;28;20266;-71
2023/06/29 09:48:13;;;;;;;1.52;1.38;;;;;;;;;;5089496;28;20221;-71
2023/06/29 09:50:41;;;;;;;0.90;0.90;;;;;;;;;;5088373;28;20256;-71
2023/06/29 09:53:09;;;;;;;0.80;0.80;;;;;;;;;;5078545;28;20199;-70
2023/06/29 09:55:38;;;;;;;0.90;0.88;;;;;;;;;;5069949;28;20249;-70
2023/06/29 09:58:06;;;;;;;0.93;0.93;;;;;;;;;;5074659;28;20206;-66
2023/06/29 10:00:34;;;;;;;0.77;0.77;;;;;;;;;;5088294;28;20202;-69
2023/06/29 10:03:02;;;;;;;0.60;0.60;;;;;;;;;;5089512;28;20198;-68
2023/06/29 10:05:31;;;;;;;3.72;0.80;;;;;;;;;;5084303;28;20261;-68
2023/06/29 10:07:59;;;;;;;0.70;0.70;;;;;;;;;;5078704;28;20210;-67
2023/06/29 10:10:27;;;;;;;0.43;0.43;;;;;;;;;;5070376;28;20635;-67
2023/06/29 10:12:56;;;;;;;2.78;0.60;;;;;;;;;;5070114;28;20220;-72
2023/06/29 10:15:23;;;;;;;0.85;0.50;;;;;;;;;;5074545;28;20300;-67
2023/06/29 10:17:54;;;;;;;0.47;0.47;;;;;;;;;;5090522;28;20304;-67
2023/06/29 10:20:23;;;;;;;0.60;0.60;;;;;;;;;;5088481;28;20206;-66
2023/06/29 10:22:50;;;;;;;0.65;0.65;;;;;;;;;;5088755;28;20222;-68
2023/06/29 10:25:20;;;;;;;0.57;0.57;;;;;;;;;;5082279;28;20839;-66
2023/06/29 10:27:47;;;;;;;0.60;0.60;;;;;;;;;;5080612;28;20214;-72
2023/06/29 10:30:19;;;;;;;0.80;0.80;;;;;;;;;;5080305;28;20239;-73
2023/06/29 10:32:49;;;;;;;1.63;0.73;;;;;;;;;;5077128;28;20737;-72
2023/06/29 10:35:16;;;;;;;1.02;0.57;;;;;;;;;;5090012;28;20209;-72
2023/06/29 10:37:45;;;;;;;0.80;0.80;;;;;;;;;;5071684;28;20236;-73
2023/06/29 10:40:16;;;;;;;0.70;0.70;;;;;;;;;;5071918;28;20207;-72
2023/06/29 10:42:53;;;;;;;0.73;0.73;;;;;;;;;;5084704;28;20782;-68
2023/06/29 10:45:30;;;;;;;2.30;0.68;;;;;;;;;;5085079;28;20213;-73
2023/06/29 10:48:15;;;;;;;2.05;1.10;;;;;;;;;;5088600;28;20206;-83
2023/06/29 10:50:43;;;;;;;2.70;0.82;;;;;;;;;;5088452;28;20226;-75
2023/06/29 10:53:12;;;;;;;7.15;1.30;;;;;;;;;;5089148;28;20214;-75
2023/06/29 10:55:41;;;;;;;0.70;0.70;;;;;;;;;;5085811;28;20202;-75
2023/06/29 10:58:13;;;;;;;1.85;1.17;;;;;;;;;;5088001;28;20583;-74
2023/06/29 11:00:40;;;;;;;0.98;0.98;;;;;;;;;;5077350;28;20207;-77
2023/06/29 11:03:09;;;;;;;1.48;0.90;;;;;;;;;;5080101;28;20213;-76
2023/06/29 11:05:36;;;;;;;0.80;0.80;;;;;;;;;;5077595;28;20882;-76
2023/06/29 11:08:03;;;;;;;1.08;1.08;;;;;;;;;;5067744;28;20211;-77
2023/06/29 11:10:32;;;;;;;1.02;0.93;;;;;;;;;;5084475;28;20252;-77
2023/06/29 11:12:59;;;;;;;1.23;1.05;;;;;;;;;;5086759;28;20214;-77
2023/06/29 11:15:27;;;;;;;1.42;1.40;;;;;;;;;;5087381;28;20214;-76
2023/06/29 11:17:55;;;;;;;1.30;1.02;;;;;;;;;;5087418;28;20316;-76
2023/06/29 11:20:22;;;;;;;0.82;0.82;;;;;;;;;;5087342;28;20669;-76
2023/06/29 11:22:51;;;;;;;1.13;1.02;;;;;;;;;;5088452;28;20737;-76
2023/06/29 11:25:18;;;;;;;1.40;1.00;;;;;;;;;;5083989;28;20221;-66
2023/06/29 11:27:47;;;;;;;0.80;0.80;;;;;;;;;;5077057;28;20207;-66
2023/06/29 11:30:14;;;;;;;2.25;1.20;;;;;;;;;;5087576;28;20234;-65
2023/06/29 11:32:42;;;;;;;1.25;1.20;;;;;;;;;;5087656;28;20218;-65
2023/06/29 11:35:10;;;;;;;1.25;1.15;;;;;;;;;;5087452;28;20305;-66
2023/06/29 11:37:38;;;;;;;1.00;1.00;;;;;;;;;;5086547;28;20301;-69
2023/06/29 11:40:07;;;;;;;0.95;0.95;;;;;;;;;;5074633;28;20209;-71
2023/06/29 11:42:35;;;;;;;1.15;1.10;;;;;;;;;;5087039;28;20210;-71
2023/06/29 11:45:06;;;;;;;1.15;1.15;;;;;;;;;;5087817;28;20222;-71
2023/06/29 11:47:33;;;;;;;1.17;1.17;;;;;;;;;;5068737;28;20665;-71
2023/06/29 11:50:00;;;;;;;1.10;1.10;;;;;;;;;;5084606;28;20217;-71
2023/06/29 11:52:30;;;;;;;0.90;0.90;;;;;;;;;;5086070;28;20217;-71
2023/06/29 11:54:57;;;;;;;1.58;1.23;;;;;;;;;;5082376;28;20198;-71
2023/06/29 11:57:24;;;;;;;2.42;1.10;;;;;;;;;;5077103;28;20689;-71
2023/06/29 11:59:51;;;;;;;1.00;1.00;;;;;;;;;;5066477;28;20664;-71
2023/06/29 12:02:20;;;;;;;1.17;1.17;;;;;;;;;;5087660;28;20210;-71
2023/06/29 12:04:57;;;;;;;1.20;1.13;;;;;;;;;;5087421;28;20241;-71
2023/06/29 12:07:39;;;;;;;1.13;1.00;;;;;;;;;;5085717;28;20221;-71
2023/06/29 12:10:07;;;;;;;1.35;1.00;;;;;;;;;;5085251;28;20708;-71
2023/06/29 12:12:37;;;;;;;1.48;1.20;;;;;;;;;;5087334;28;20210;-71
2023/06/29 12:15:14;;;;;;;1.15;1.05;;;;;;;;;;5087586;28;20229;-71
2023/06/29 12:17:43;;;;;;;1.48;1.30;;;;;;;;;;5085428;28;20261;-72
2023/06/29 12:20:14;;;;;;;1.35;1.25;;;;;;;;;;5078080;28;20214;-71
2023/06/29 12:22:41;;;;;;;1.23;1.17;;;;;;;;;;5081154;28;20222;-70
2023/06/29 12:25:10;;;;;;;1.20;1.20;;;;;;;;;;5071275;28;20211;-70
2023/06/29 12:27:37;;;;;;;1.25;1.25;;;;;;;;;;5075131;28;20304;-69
2023/06/29 12:30:05;;;;;;;1.55;1.45;;;;;;;;;;5077565;28;20218;-67
2023/06/29 12:32:32;;;;;;;1.23;1.23;;;;;;;;;;5072103;28;20918;-67
2023/06/29 12:35:00;;;;;;;0.93;0.93;;;;;;;;;;5078550;28;20219;-68
2023/06/29 12:37:27;;;;;;;1.08;1.08;;;;;;;;;;5085049;28;20332;-69
2023/06/29 12:39:54;;;;;;;1.35;1.25;;;;;;;;;;5081696;28;20203;-68
2023/06/29 12:42:23;;;;;;;2.10;1.60;;;;;;;;;;5083619;28;20213;-68
2023/06/29 12:44:51;;;;;;;1.25;1.25;;;;;;;;;;5083271;28;20298;-69
2023/06/29 12:47:19;;;;;;;4.10;1.52;;;;;;;;;;5082423;28;20267;-69
2023/06/29 12:49:46;;;;;;;1.67;1.58;;;;;;;;;;5087290;28;20210;-69
2023/06/29 12:52:16;;;;;;;1.70;1.60;;;;;;;;;;5077984;28;20233;-69
2023/06/29 12:54:43;;;;;;;1.30;1.30;;;;;;;;;;5067850;28;20202;-69
2023/06/29 12:57:12;;;;;;;1.75;1.65;;;;;;;;;;5076880;28;20711;-69
2023/06/29 12:59:39;;;;;;;1.83;1.65;;;;;;;;;;5076001;28;20782;-69
2023/06/29 13:02:07;;;;;;;1.58;1.55;;;;;;;;;;5067172;28;20207;-70
2023/06/29 13:04:35;;;;;;;1.73;1.63;;;;;;;;;;5073431;28;20756;-68
2023/06/29 13:07:02;;;;;;;1.80;1.70;;;;;;;;;;5075739;28;20728;-69
2023/06/29 13:09:31;;;;;;;1.58;1.48;;;;;;;;;;5068749;28;20755;-69
2023/06/29 13:12:00;;;;;;;2.08;1.63;;;;;;;;;;5070171;28;20230;-69
2023/06/29 13:14:28;;;;;;;1.80;1.67;;;;;;;;;;5068758;28;20272;-68
2023/06/29 13:16:56;;;;;;;1.27;1.27;;;;;;;;;;5088356;28;20210;-69
2023/06/29 13:19:23;;;;;;;1.73;1.52;;;;;;;;;;5091173;28;20435;-69
2023/06/29 13:21:50;;;;;;;1.73;1.63;;;;;;;;;;5071805;28;20377;-69
2023/06/29 13:24:17;;;;;;;2.13;1.48;;;;;;;;;;5070900;28;20203;-69
2023/06/29 13:26:46;;;;;;;1.80;1.70;;;;;;;;;;5084393;28;20727;-69
2023/06/29 13:29:13;;;;;;;2.47;1.77;;;;;;;;;;5090948;28;20558;-69
2023/06/29 13:31:40;;;;;;;1.75;1.65;;;;;;;;;;5091045;28;20268;-69
2023/06/29 13:34:07;;;;;;;1.90;1.70;;;;;;;;;;5076499;28;20218;-69
2023/06/29 13:36:34;;;;;;;1.48;1.48;;;;;;;;;;5081031;28;20631;-69
2023/06/29 13:39:01;;;;;;;1.92;1.80;;;;;;;;;;5090608;28;20782;-68
2023/06/29 13:41:37;;;;;;;1.55;1.30;;;;;;;;;;5090385;28;20209;-68
2023/06/29 13:44:07;;;;;;;1.73;1.20;;;;;;;;;;5080527;28;20281;-68
2023/06/29 13:46:35;;;;;;;1.45;1.45;;;;;;;;;;5086218;28;20209;-68
2023/06/29 13:49:02;;;;;;;1.55;1.45;;;;;;;;;;5072273;28;20214;-68
2023/06/29 13:51:29;;;;;;;1.42;1.33;;;;;;;;;;5071210;28;20276;-69
2023/06/29 13:53:57;;;;;;;1.42;1.42;;;;;;;;;;5088119;28;20641;-68
2023/06/29 13:56:24;;;;;;;1.63;1.52;;;;;;;;;;5076243;28;20565;-69
2023/06/29 13:58:52;;;;;;;1.70;1.60;;;;;;;;;;5070203;28;20241;-69
2023/06/29 14:01:20;;;;;;;2.97;1.75;;;;;;;;;;5078293;28;20629;-69
2023/06/29 14:03:47;;;;;;;3.20;1.55;;;;;;;;;;5089272;28;20207;-69
2023/06/29 14:06:18;;;;;;;2.05;1.50;;;;;;;;;;5082366;28;20207;-68
2023/06/29 14:08:45;;;;;;;1.30;1.30;;;;;;;;;;5070137;28;20210;-69
2023/06/29 14:11:12;;;;;;;2.35;1.52;;;;;;;;;;5069703;28;20788;-69
2023/06/29 14:13:40;;;;;;;1.40;1.40;;;;;;;;;;5079227;28;20206;-69
2023/06/29 14:16:07;;;;;;;5.32;1.73;;;;;;;;;;5089032;28;20267;-69
2023/06/29 14:18:35;;;;;;;2.70;1.60;;;;;;;;;;5074741;28;20202;-69
2023/06/29 14:21:03;;;;;;;1.40;1.40;;;;;;;;;;5087713;28;20284;-69
2023/06/29 14:23:31;;;;;;;1.65;1.58;;;;;;;;;;5080747;28;20230;-71
2023/06/29 14:25:58;;;;;;;1.40;1.40;;;;;;;;;;5076114;28;20214;-67
2023/06/29 14:28:26;;;;;;;1.35;1.35;;;;;;;;;;5068925;28;20215;-67
2023/06/29 14:30:53;;;;;;;1.80;1.70;;;;;;;;;;5087546;28;20199;-67
2023/06/29 14:33:20;;;;;;;1.75;1.65;;;;;;;;;;5089390;28;20202;-67
2023/06/29 14:35:50;;;;;;;3.47;1.70;;;;;;;;;;5089406;28;20210;-67
2023/06/29 14:38:17;;;;;;;2.97;1.63;;;;;;;;;;5089286;28;20213;-67
2023/06/29 14:40:44;;;;;;;1.80;1.70;;;;;;;;;;5088294;28;20210;-67
2023/06/29 14:43:12;;;;;;;1.60;1.60;;;;;;;;;;5088284;28;20228;-68
2023/06/29 14:45:39;;;;;;;1.63;1.60;;;;;;;;;;5087824;28;20218;-67